Latest Weather Observations for Mandora

IDW60801

Issued at 3:32 pm WST Tuesday 1 September 2015 (issued every 30 minutes, with the page automatically refreshed every 10 minutes)

About weather observations | Map of weather stations | Latest weather observations for WA | Other Formats
Station Details ID: 004019 Name: MANDORA Lat: -19.74 Lon: 120.84 Height: 7.5 m
Data from the previous 72 hours. | See also: Recent months at Mandora
Date/Time
WST
Temp
°C
App
Temp
°C
Dew
Point
Rel
Hum
%
Delta-T
°C
Wind Press
QNH
hPa
Press
MSL
hPa
Rain
since 9 am
mm
Dir
 
Spd
km/h
Gust
km/h
Spd
kts
Gust
kts
01/03:30pm 26.9 23.6 14.0 45 7.7 NNW 24 35 13 19 1011.5 - 0.0
01/03:00pm 26.9 24.0 14.0 45 7.7 NNW 22 32 12 17 1011.5 1011.5 0.0
01/02:30pm 27.0 24.2 14.4 46 7.5 NNW 22 32 12 17 1011.5 - 0.0
01/02:00pm 27.7 25.0 14.7 45 7.8 NNW 22 32 12 17 1011.6 - 0.0
01/01:30pm 28.3 25.3 13.8 41 8.6 NNW 22 30 12 16 1011.7 - 0.0
01/01:00pm 29.1 25.3 12.5 36 9.7 N 24 35 13 19 1011.9 - 0.0
01/12:30pm 33.2 29.5 2.1 14 15.7 E 11 17 6 9 1012.3 - 0.0
01/12:00pm 32.4 28.3 2.5 15 15.1 N 13 22 7 12 1012.6 1012.6 0.0
01/11:30am 32.5 28.6 3.5 16 14.9 S 13 24 7 13 1013.1 - 0.0
01/11:00am 31.5 27.6 3.5 17 14.3 SE 13 20 7 11 1013.6 - 0.0
01/10:30am 30.7 26.1 3.7 18 13.8 SSE 17 28 9 15 1013.9 - 0.0
01/10:00am 29.8 25.0 4.4 20 13.1 S 19 28 10 15 1014.2 - 0.0
01/09:30am 28.0 23.2 5.6 24 11.6 SSE 20 32 11 17 1014.3 - 0.0
01/09:00am 26.5 21.9 6.5 28 10.5 S 20 28 11 15 1014.4 1014.4 -
01/08:30am 24.2 20.6 9.8 40 7.9 SSW 19 28 10 15 1014.5 - -
01/08:00am 21.1 19.8 13.8 63 4.2 WSW 13 17 7 9 1014.4 - -
01/07:30am 18.3 18.2 15.0 81 1.9 W 9 15 5 8 1014.4 - -
01/07:00am 14.6 14.5 13.3 92 0.7 WNW 6 7 3 4 1014.0 - -
01/06:30am 12.1 11.3 11.0 93 0.6 SSW 6 11 3 6 1013.7 - -
01/06:00am 11.6 10.1 10.5 93 0.6 SW 9 11 5 6 1013.5 1013.5 -
01/05:30am 12.5 11.7 11.6 94 0.5 NE 7 13 4 7 1013.4 - -
01/05:00am 13.1 12.5 12.2 94 0.5 WSW 7 9 4 5 1013.0 - -
01/04:30am 12.6 12.7 11.5 93 0.6 W 2 6 1 3 1012.9 - -
01/04:00am 13.4 12.9 12.1 92 0.7 WSW 6 11 3 6 1012.8 - -
01/03:30am 14.4 15.3 13.0 91 0.8 CALM 0 0 0 0 1012.9 - -
01/03:00am 15.8 15.7 14.0 89 1.0 SW 7 9 4 5 1013.0 1013.0 -
01/02:30am 16.6 15.9 14.4 87 1.3 SW 11 15 6 8 1013.2 - -
01/02:00am 17.2 16.3 14.8 86 1.4 W 13 17 7 9 1013.2 - -
01/01:30am 17.4 16.7 15.4 88 1.2 W 13 17 7 9 1013.3 - -
01/01:00am 16.9 16.7 15.8 93 0.6 WSW 11 15 6 8 1013.5 - -
01/12:30am 16.6 17.3 15.6 94 0.6 SW 6 7 3 4 1014.0 - -
01/12:00am 16.9 17.5 15.8 93 0.6 WSW 7 9 4 5 1014.3 1014.3 -
 
Date/Time
WST
Temp
°C
App
Temp
°C
Dew
Point
Rel
Hum
%
Delta-T
°C
Wind Press
QNH
hPa
Press
MSL
hPa
Rain
since 9 am
mm
Dir
 
Spd
km/h
Gust
km/h
Spd
kts
Gust
kts
31/11:30pm 17.7 18.6 16.7 94 0.6 W 7 9 4 5 1014.4 - -
31/11:00pm 17.7 18.2 16.6 93 0.7 SW 9 11 5 6 1014.3 - -
31/10:30pm 18.0 19.0 16.9 93 0.7 W 7 7 4 4 1014.4 - -
31/10:00pm 18.9 19.8 17.6 92 0.8 W 9 11 5 6 1014.5 - -
31/09:30pm 19.6 20.5 18.3 92 0.8 W 11 13 6 7 1014.6 - -
31/09:00pm 19.6 20.4 18.1 91 0.9 W 11 13 6 7 1014.7 1014.7 -
31/08:30pm 19.9 21.1 18.2 90 1.1 W 9 13 5 7 1014.6 - -
31/08:00pm 20.2 21.1 18.3 89 1.2 W 11 15 6 8 1014.4 - -
31/07:30pm 20.5 21.7 18.3 87 1.4 W 9 11 5 6 1014.0 - -
31/07:00pm 21.0 22.0 18.6 86 1.5 WNW 11 13 6 7 1013.5 - -
31/06:30pm 21.5 22.8 18.5 83 1.9 WNW 9 11 5 6 1013.1 - -
31/06:00pm 22.5 23.5 18.7 79 2.4 NW 11 17 6 9 1012.8 1012.8 -
31/05:30pm 23.5 23.4 18.8 75 3.0 NNW 17 24 9 13 1012.6 - -
31/05:00pm 24.1 22.9 18.5 71 3.5 NNW 22 32 12 17 1012.4 - -
31/04:30pm 24.7 24.2 18.6 69 3.9 NNW 19 28 10 15 1012.2 - -
31/04:00pm 24.8 23.4 18.0 66 4.3 NNW 22 33 12 18 1012.1 - -
31/03:30pm 25.7 24.3 18.9 66 4.3 NNW 24 35 13 19 1012.2 - -
31/03:00pm 26.1 24.4 18.2 61 5.0 NNW 24 35 13 19 1012.4 1012.4 -
31/02:30pm 26.6 24.4 17.9 59 5.5 NW 26 35 14 19 1012.6 - -
31/02:00pm 27.5 27.0 19.0 59 5.5 NW 20 33 11 18 1012.9 - -
31/11:00am 25.9 25.0 18.3 63 4.8 NW 20 30 11 16 1014.9 - 0.0
31/10:30am 26.4 25.8 18.5 62 5.0 NW 19 28 10 15 1015.3 - 0.0
31/10:00am 26.2 25.1 17.8 60 5.3 WNW 20 28 11 15 1015.4 - 0.0
31/09:30am 25.7 24.9 18.1 63 4.8 WNW 19 30 10 16 1015.4 - 0.0
31/09:00am 25.3 25.0 18.2 64 4.5 WNW 17 26 9 14 1015.1 1015.1 0.0
31/08:30am 24.9 24.8 18.8 69 3.9 WNW 17 24 9 13 1014.9 - 0.0
31/08:00am 21.8 24.6 19.7 88 1.3 S 4 9 2 5 1014.9 - 0.0
31/07:30am 17.6 19.9 16.8 95 0.5 CALM 0 6 0 3 1014.9 - 0.0
31/07:00am 14.7 14.6 13.9 95 0.4 E 7 9 4 5 1014.7 - 0.0
31/06:30am 14.0 15.0 13.1 94 0.5 CALM 0 0 0 0 1014.4 - 0.0
31/06:00am 12.6 12.0 11.7 94 0.5 WNW 6 7 3 4 1014.1 1014.1 0.0
31/05:30am 12.4 12.9 11.5 94 0.5 CALM 0 0 0 0 1014.0 - 0.0
31/05:00am 12.6 11.4 11.7 94 0.5 WNW 9 11 5 6 1013.9 - 0.0
31/04:30am 12.2 11.5 11.3 94 0.5 WNW 6 7 3 4 1013.8 - 0.0
31/04:00am 14.9 14.9 14.1 95 0.5 WNW 7 9 4 5 1013.8 - 0.0
31/03:30am 14.3 13.7 13.5 95 0.4 WNW 9 11 5 6 1013.9 - 0.0
31/03:00am 12.8 12.1 11.9 94 0.5 WNW 7 9 4 5 1014.2 1014.2 0.0
31/02:30am 13.2 13.9 12.3 94 0.5 CALM 0 0 0 0 1014.5 - 0.0
31/02:00am 13.7 14.6 12.8 94 0.5 CALM 0 0 0 0 1014.8 - 0.0
31/01:30am 14.3 15.3 13.3 94 0.6 CALM 0 0 0 0 1015.0 - 0.0
31/01:00am 15.2 15.4 14.2 94 0.6 W 6 7 3 4 1015.3 - 0.0
31/12:30am 16.1 16.6 15.1 94 0.6 WSW 6 7 3 4 1015.5 - 0.0
31/12:00am 18.0 18.8 17.2 95 0.5 WNW 9 9 5 5 1015.8 1015.8 0.0
 
Date/Time
WST
Temp
°C
App
Temp
°C
Dew
Point
Rel
Hum
%
Delta-T
°C
Wind Press
QNH
hPa
Press
MSL
hPa
Rain
since 9 am
mm
Dir
 
Spd
km/h
Gust
km/h
Spd
kts
Gust
kts
30/11:30pm 17.6 17.7 16.6 94 0.6 W 11 13 6 7 1015.9 - 0.0
30/11:00pm 16.5 16.9 15.4 93 0.6 NNW 7 9 4 5 1016.0 - 0.0
30/10:30pm 17.9 19.1 16.8 93 0.7 NW 6 9 3 5 1016.3 - 0.0
30/10:00pm 18.3 19.4 17.0 92 0.8 W 7 9 4 5 1016.4 - 0.0
30/09:30pm 19.1 20.1 17.8 92 0.8 WNW 9 11 5 6 1016.3 - 0.0
30/09:00pm 19.3 20.4 18.0 92 0.8 WNW 9 11 5 6 1016.0 1016.0 0.0
30/08:30pm 19.2 20.3 17.9 92 0.8 W 9 11 5 6 1015.9 - 0.0
30/08:00pm 19.0 19.8 17.3 90 1.0 W 9 11 5 6 1015.6 - 0.0
30/07:30pm 19.5 20.4 17.5 88 1.2 NW 9 11 5 6 1015.4 - 0.0
30/07:00pm 19.7 20.4 17.1 85 1.6 NW 9 11 5 6 1015.2 - 0.0
30/06:30pm 20.6 21.4 17.2 81 2.1 NW 9 11 5 6 1015.0 - 0.0
30/06:00pm 22.0 23.0 17.8 77 2.6 NW 9 13 5 7 1014.6 1014.6 0.0
30/05:30pm 23.3 23.1 17.5 70 3.6 NW 15 24 8 13 1014.6 - 0.0
30/05:00pm 23.9 22.7 17.4 67 4.0 NW 20 28 11 15 1014.5 - 0.0
30/04:30pm 24.6 23.5 17.3 64 4.5 NW 19 28 10 15 1014.5 - 0.0
30/04:00pm 25.1 23.4 17.3 62 4.9 NW 22 30 12 16 1014.4 - 0.0
30/03:30pm 25.5 24.2 17.2 60 5.2 WNW 20 30 11 16 1014.2 - 0.0
30/03:00pm 26.2 25.1 17.8 60 5.3 NW 20 33 11 18 1014.2 1014.2 0.0
30/02:30pm 26.5 24.6 16.7 55 6.1 WNW 22 32 12 17 1014.3 - 0.0
30/02:00pm 26.6 24.6 16.5 54 6.2 WNW 22 32 12 17 1014.6 - 0.0
30/01:30pm 26.9 25.4 16.8 54 6.3 WNW 20 30 11 16 1014.8 - 0.0
30/01:00pm 27.0 25.1 16.6 53 6.4 WNW 22 32 12 17 1015.4 - 0.0
30/12:30pm 26.8 24.7 16.1 52 6.6 WNW 22 33 12 18 1015.5 - 0.0
30/12:00pm 26.9 24.7 15.9 51 6.7 W 22 33 12 18 1016.0 1016.0 0.0
30/11:30am 26.9 24.6 14.0 45 7.7 W 19 28 10 15 1016.4 - 0.0
30/11:00am 26.8 24.3 14.2 46 7.5 W 20 30 11 16 1017.1 - 0.0
30/10:30am 25.6 23.6 15.0 52 6.4 W 19 30 10 16 1017.6 - 0.0
30/10:00am 25.5 23.6 15.8 55 5.9 W 20 33 11 18 1018.0 - 0.0
30/09:30am 25.1 23.7 16.5 59 5.3 WNW 19 26 10 14 1017.9 - 0.0
30/09:00am 24.2 23.4 17.2 65 4.3 W 17 26 9 14 1017.7 1017.7 0.0
30/08:30am 23.5 23.6 17.5 69 3.7 W 13 20 7 11 1017.5 - 0.0
30/08:00am 21.3 21.5 17.7 80 2.2 SW 13 15 7 8 1017.3 - 0.0
30/07:30am 19.0 20.2 18.2 95 0.5 SSW 9 13 5 7 1017.1 - 0.0
30/07:00am 15.9 16.4 15.1 95 0.5 SE 6 7 3 4 1017.0 - 0.0
30/06:30am 14.9 16.2 14.1 95 0.5 CALM 0 0 0 0 1016.8 - 0.0
30/06:00am 14.9 14.9 14.1 95 0.5 SSW 7 9 4 5 1016.1 1016.1 0.0
30/05:30am 15.8 15.7 15.0 95 0.5 S 9 9 5 5 1015.6 - 0.0
30/05:00am 16.5 16.7 15.7 95 0.5 S 9 13 5 7 1015.3 - 0.0
30/04:30am 16.3 16.0 15.5 95 0.5 SSW 11 13 6 7 1015.2 - 0.0
30/04:00am 16.0 15.6 15.2 95 0.5 SSW 11 13 6 7 1015.0 - 0.0
30/03:30am 15.4 14.8 14.6 95 0.5 SW 11 11 6 6 1015.0 - 0.0
30/03:00am 13.3 12.7 12.4 94 0.5 SW 7 9 4 5 1014.9 1014.9 0.0
30/02:30am 14.1 13.7 13.1 94 0.6 SW 7 9 4 5 1014.7 - 0.0
30/02:00am 14.5 14.5 13.5 94 0.6 WSW 6 7 3 4 1015.0 - 0.0
30/01:30am 16.1 16.1 15.1 94 0.6 WSW 9 9 5 5 1015.2 - 0.0
30/01:00am 16.1 16.4 15.1 94 0.6 SW 7 9 4 5 1015.6 - 0.0
30/12:30am 17.4 18.4 16.4 94 0.6 WSW 6 7 3 4 1015.6 - 0.0
30/12:00am 17.4 17.8 16.4 94 0.6 W 9 9 5 5 1015.8 1015.8 0.0
 
Date/Time
WST
Temp
°C
App
Temp
°C
Dew
Point
Rel
Hum
%
Delta-T
°C
Wind Press
QNH
hPa
Press
MSL
hPa
Rain
since 9 am
mm
Dir
 
Spd
km/h
Gust
km/h
Spd
kts
Gust
kts
29/11:30pm 17.6 17.7 16.5 93 0.7 WSW 11 13 6 7 1016.0 - 0.0
29/11:00pm 17.9 18.4 16.6 92 0.8 WSW 9 9 5 5 1016.1 - 0.0
29/10:30pm 18.7 19.5 17.2 91 0.9 W 9 11 5 6 1016.2 - 0.0
29/10:00pm 18.8 19.6 17.3 91 0.9 W 9 13 5 7 1016.5 - 0.0
29/09:30pm 19.0 20.1 17.1 89 1.2 W 7 9 4 5 1016.4 - 0.0
29/09:00pm 19.4 20.2 17.4 88 1.2 WNW 9 13 5 7 1016.4 1016.4 0.0
29/08:30pm 19.6 20.0 17.2 86 1.5 WNW 11 15 6 8 1016.3 - 0.0
29/08:00pm 20.0 20.8 17.2 84 1.7 WNW 9 13 5 7 1016.2 - 0.0
29/07:30pm 20.5 21.2 17.1 81 2.1 WNW 9 13 5 7 1015.8 - 0.0
29/07:00pm 21.0 21.3 17.0 78 2.4 WNW 11 15 6 8 1015.5 - 0.0
29/06:30pm 21.5 21.4 16.9 75 2.8 WNW 13 17 7 9 1015.2 - 0.0
29/06:00pm 22.3 22.8 16.6 70 3.5 WNW 9 13 5 7 1014.9 1014.9 0.0
29/05:30pm 23.4 22.7 16.4 64 4.3 WNW 15 24 8 13 1014.6 - 0.0
29/05:00pm 24.4 23.5 15.9 59 5.2 NW 15 24 8 13 1014.3 - 0.0
29/04:30pm 25.2 23.3 15.2 54 6.0 NW 19 26 10 14 1014.1 - 0.0
29/04:00pm 26.7 25.4 15.7 51 6.7 NW 17 26 9 14 1013.8 - 0.0

Other Formats:

Comma delimited format used in spreadsheet applications
http://www.bom.gov.au/fwo/IDW60801/IDW60801.94200.axf

JavaScript Object Notation format (JSON) in row-major order
http://www.bom.gov.au/fwo/IDW60801/IDW60801.94200.json